Time;durP1;ratioP1;P1;durP2;ratioP2;P2;SDS_P1;SDS_P2;PMS_P1;PMS_P2;Temp;Humidity;BMP_temperature;BMP_pressure;BME280_temperature;BME280_humidity;BME280_pressure;Samples;Min_cycle;Max_cycle;Signal;HPM_P1;HPM_P2
2022/09/06 00:00:06;;;;;;;10.40;7.43;;;7.20;99.90;;;;;;6127755;23;20124;-78
2022/09/06 00:02:42;;;;;;;7.78;6.32;;;7.30;99.90;;;;;;6154132;23;20028;-78
2022/09/06 00:05:11;;;;;;;9.32;6.38;;;7.40;99.90;;;;;;6127844;23;20497;-78
2022/09/06 00:07:39;;;;;;;8.77;6.47;;;7.50;99.90;;;;;;6128289;23;20047;-78
2022/09/06 00:10:07;;;;;;;10.30;7.10;;;7.60;99.90;;;;;;6152992;23;20029;-77
2022/09/06 00:12:35;;;;;;;6.60;5.93;;;7.70;99.90;;;;;;6153777;23;20025;-78
2022/09/06 00:15:04;;;;;;;10.18;6.32;;;7.80;99.90;;;;;;6154026;23;20025;-77
2022/09/06 00:17:32;;;;;;;7.88;6.28;;;7.90;99.90;;;;;;6153891;23;20025;-77
2022/09/06 00:20:01;;;;;;;8.65;5.78;;;7.90;99.90;;;;;;6153318;23;20029;-77
2022/09/06 00:22:30;;;;;;;9.88;6.90;;;7.90;99.90;;;;;;6153812;23;20025;-79
2022/09/06 00:24:58;;;;;;;9.85;7.07;;;8.00;99.90;;;;;;6153469;23;20080;-77
2022/09/06 00:27:25;;;;;;;9.35;6.35;;;8.00;99.90;;;;;;6153503;23;20026;-77
2022/09/06 00:29:53;;;;;;;8.00;7.20;;;8.10;99.90;;;;;;6153483;23;20017;-77
2022/09/06 00:32:20;;;;;;;8.73;6.90;;;8.10;99.90;;;;;;6153521;23;20501;-77
2022/09/06 00:34:47;;;;;;;10.63;6.65;;;8.10;99.90;;;;;;6153713;23;20035;-77
2022/09/06 00:37:16;;;;;;;8.55;6.55;;;8.10;99.90;;;;;;6153459;23;20462;-77
2022/09/06 00:39:43;;;;;;;7.43;6.03;;;8.20;99.90;;;;;;6127846;23;20032;-77
2022/09/06 00:42:13;;;;;;;7.28;6.47;;;8.30;99.90;;;;;;6151193;23;20100;-77
2022/09/06 00:44:41;;;;;;;10.65;6.57;;;8.30;99.90;;;;;;6154240;23;20046;-77
2022/09/06 00:47:09;;;;;;;7.90;7.10;;;8.30;99.90;;;;;;6127535;23;20027;-78
2022/09/06 00:49:42;;;;;;;6.80;6.03;;;8.30;99.90;;;;;;6154100;23;20025;-78
2022/09/06 00:52:14;;;;;;;8.60;6.80;;;8.40;99.90;;;;;;6153576;23;20103;-77
2022/09/06 00:54:43;;;;;;;9.50;6.80;;;8.40;99.90;;;;;;6127662;23;20025;-77
2022/09/06 00:57:11;;;;;;;7.30;6.20;;;8.50;99.90;;;;;;6153796;23;20438;-78
2022/09/06 00:59:40;;;;;;;7.00;6.15;;;8.50;99.90;;;;;;6127204;23;20017;-77
2022/09/06 01:02:08;;;;;;;6.65;5.88;;;8.50;99.90;;;;;;6127337;23;20029;-77
2022/09/06 01:04:39;;;;;;;6.63;5.78;;;8.60;99.90;;;;;;6154023;23;20096;-77
2022/09/06 01:07:19;;;;;;;6.35;5.75;;;8.60;99.90;;;;;;6153849;23;20331;-77
2022/09/06 01:10:08;;;;;;;5.57;5.07;;;8.70;99.90;;;;;;6152077;23;20061;-77
2022/09/06 01:12:47;;;;;;;6.90;5.85;;;8.80;99.90;;;;;;6152379;23;20044;-78
2022/09/06 01:15:28;;;;;;;7.20;5.15;;;8.90;99.90;;;;;;6153209;23;20021;-78
2022/09/06 01:18:07;;;;;;;6.80;6.07;;;8.90;99.90;;;;;;6153622;23;20025;-76
2022/09/06 01:20:46;;;;;;;11.18;5.68;;;9.00;99.90;;;;;;6127166;23;20321;-77
2022/09/06 01:24:05;;;;;;;6.25;5.65;;;9.00;99.90;;;;;;6153291;23;20037;-78
2022/09/06 01:27:15;;;;;;;7.20;6.47;;;9.10;99.90;;;;;;6153231;23;20458;-77
2022/09/06 01:29:48;;;;;;;6.82;5.43;;;9.10;99.90;;;;;;6126883;23;20025;-78
2022/09/06 01:32:29;;;;;;;6.22;5.40;;;9.20;99.90;;;;;;6153409;23;20072;-77
2022/09/06 01:35:07;;;;;;;5.80;5.30;;;9.20;99.90;;;;;;6127491;23;20091;-77
2022/09/06 01:37:34;;;;;;;5.53;5.03;;;9.30;99.90;;;;;;6127695;23;20072;-77
2022/09/06 01:40:02;;;;;;;6.05;5.47;;;9.30;99.90;;;;;;6154175;23;20032;-79
2022/09/06 01:42:33;;;;;;;5.90;5.32;;;9.30;99.90;;;;;;6153921;23;20041;-77
2022/09/06 01:45:06;;;;;;;7.18;5.72;;;9.30;99.90;;;;;;6152972;23;20053;-77
2022/09/06 01:47:42;;;;;;;7.28;5.88;;;9.30;99.90;;;;;;6152539;23;20025;-77
2022/09/06 01:50:30;;;;;;;7.25;4.72;;;9.30;99.90;;;;;;6153033;23;20453;-77
2022/09/06 01:53:11;;;;;;;8.85;5.15;;;9.30;99.90;;;;;;6153124;23;20331;-77
2022/09/06 01:55:50;;;;;;;5.70;4.97;;;9.30;99.90;;;;;;6126738;23;20021;-77
2022/09/06 01:58:55;;;;;;;6.68;5.85;;;9.30;99.90;;;;;;6153285;23;20029;-77
2022/09/06 02:01:35;;;;;;;6.68;5.55;;;9.20;99.90;;;;;;6153059;23;20042;-77
2022/09/06 02:04:10;;;;;;;8.18;5.60;;;9.20;99.90;;;;;;6153593;23;20348;-77
2022/09/06 02:06:43;;;;;;;5.38;4.88;;;9.20;99.90;;;;;;6153242;23;20084;-78
2022/09/06 02:09:14;;;;;;;6.05;5.45;;;9.20;99.90;;;;;;6126659;23;20128;-77
2022/09/06 02:11:48;;;;;;;5.72;5.13;;;9.20;99.90;;;;;;6153003;23;20025;-78
2022/09/06 02:14:21;;;;;;;4.97;4.45;;;9.20;99.90;;;;;;6153309;23;20451;-78
2022/09/06 02:16:53;;;;;;;6.43;4.30;;;9.20;99.90;;;;;;6127338;23;20121;-78
2022/09/06 02:19:30;;;;;;;5.18;4.43;;;9.30;99.90;;;;;;6153767;23;20056;-78
2022/09/06 02:22:00;;;;;;;4.45;4.05;;;9.30;99.90;;;;;;6153591;23;20363;-78
2022/09/06 02:24:31;;;;;;;4.72;4.18;;;9.40;99.90;;;;;;6126913;23;20025;-78
2022/09/06 02:26:59;;;;;;;3.92;3.63;;;9.30;99.90;;;;;;6154299;23;20096;-78
2022/09/06 02:29:26;;;;;;;4.38;3.97;;;9.30;99.90;;;;;;6154736;23;20437;-78
2022/09/06 02:32:03;;;;;;;5.25;4.70;;;9.40;99.90;;;;;;6155054;23;20025;-77
2022/09/06 02:34:31;;;;;;;7.82;4.55;;;9.40;99.90;;;;;;6154001;23;20021;-78
2022/09/06 02:36:58;;;;;;;4.50;4.10;;;9.40;99.90;;;;;;6128348;23;20350;-78
2022/09/06 02:39:25;;;;;;;4.25;3.47;;;9.50;99.90;;;;;;6155384;23;20032;-77
2022/09/06 02:41:53;;;;;;;4.70;3.45;;;9.50;99.90;;;;;;6155528;23;20026;-78
2022/09/06 02:44:20;;;;;;;8.75;3.55;;;9.50;99.90;;;;;;6129048;23;20025;-78
2022/09/06 02:46:48;;;;;;;3.33;3.03;;;9.60;99.90;;;;;;6128767;23;20025;-78
2022/09/06 02:49:16;;;;;;;3.60;3.30;;;9.60;99.90;;;;;;6155382;23;20021;-72
2022/09/06 02:51:44;;;;;;;3.15;2.85;;;9.60;99.90;;;;;;6155202;23;20025;-72
2022/09/06 02:54:11;;;;;;;3.92;3.17;;;9.60;99.90;;;;;;6154640;23;20029;-72
2022/09/06 02:56:39;;;;;;;3.47;3.17;;;9.60;99.90;;;;;;6103863;23;20060;-72
2022/09/06 02:59:06;;;;;;;3.10;2.80;;;9.60;99.90;;;;;;6154800;23;20311;-72
2022/09/06 03:01:34;;;;;;;3.33;2.92;;;9.60;99.90;;;;;;6128229;23;20374;-72
2022/09/06 03:04:01;;;;;;;5.20;3.35;;;9.60;99.90;;;;;;6154813;23;20358;-72
2022/09/06 03:06:30;;;;;;;4.80;3.28;;;9.50;99.90;;;;;;6154397;23;20331;-72
2022/09/06 03:08:58;;;;;;;4.88;4.07;;;9.50;99.90;;;;;;6154851;23;20037;-73
2022/09/06 03:11:27;;;;;;;6.35;5.75;;;9.40;99.90;;;;;;6128007;23;20025;-73
2022/09/06 03:13:54;;;;;;;5.65;4.43;;;9.40;99.90;;;;;;6128281;23;20029;-73
2022/09/06 03:16:22;;;;;;;4.35;2.95;;;9.40;99.90;;;;;;6127853;23;20017;-72
2022/09/06 03:18:49;;;;;;;3.22;2.90;;;9.40;99.90;;;;;;6154915;23;20398;-73
2022/09/06 03:21:16;;;;;;;6.38;3.13;;;9.40;99.90;;;;;;6154477;23;20579;-72
2022/09/06 03:23:45;;;;;;;4.82;3.45;;;9.40;99.90;;;;;;6154104;23;20025;-72
2022/09/06 03:26:13;;;;;;;7.25;3.47;;;9.40;99.90;;;;;;6154680;23;20201;-72
2022/09/06 03:28:41;;;;;;;4.63;3.22;;;9.30;99.90;;;;;;6154549;23;20031;-73
2022/09/06 03:31:09;;;;;;;4.40;3.22;;;9.30;99.90;;;;;;6127472;23;20025;-73
2022/09/06 03:33:39;;;;;;;3.97;3.58;;;9.30;99.90;;;;;;6154702;23;20021;-73
2022/09/06 03:36:07;;;;;;;3.35;3.05;;;9.40;99.90;;;;;;6153245;23;20053;-73
2022/09/06 03:38:35;;;;;;;3.72;3.13;;;9.40;99.90;;;;;;6154315;23;20032;-73
2022/09/06 03:41:03;;;;;;;5.65;3.20;;;9.50;99.90;;;;;;6153465;23;20025;-73
2022/09/06 03:43:31;;;;;;;3.85;3.50;;;9.50;99.90;;;;;;6154556;23;20451;-73
2022/09/06 03:45:58;;;;;;;4.20;3.58;;;9.60;99.90;;;;;;6127793;23;20400;-73
2022/09/06 03:48:28;;;;;;;5.03;3.40;;;9.60;99.90;;;;;;6154030;23;20100;-73
2022/09/06 03:50:58;;;;;;;3.53;3.20;;;9.60;99.90;;;;;;6102936;23;20509;-72
2022/09/06 03:53:27;;;;;;;6.03;4.03;;;9.70;99.90;;;;;;6154145;23;20017;-73
2022/09/06 03:55:57;;;;;;;3.97;3.47;;;9.70;99.90;;;;;;6154141;23;20057;-72
2022/09/06 03:58:31;;;;;;;3.30;2.67;;;9.70;99.90;;;;;;6154388;23;20348;-72
2022/09/06 04:01:04;;;;;;;2.50;2.30;;;9.70;99.90;;;;;;6152907;23;20055;-73
2022/09/06 04:03:32;;;;;;;3.00;2.63;;;9.70;99.90;;;;;;6154141;23;20439;-73
2022/09/06 04:06:00;;;;;;;3.42;2.95;;;9.80;99.90;;;;;;6153822;23;20022;-72
2022/09/06 04:08:28;;;;;;;4.05;3.15;;;9.80;99.90;;;;;;6152659;23;20036;-72
2022/09/06 04:10:56;;;;;;;4.40;2.78;;;9.80;99.90;;;;;;6152573;23;20199;-72
2022/09/06 04:13:26;;;;;;;3.75;2.88;;;9.80;99.90;;;;;;6153508;23;20068;-72
2022/09/06 04:15:54;;;;;;;4.53;3.53;;;9.90;99.90;;;;;;6103467;23;20332;-76
2022/09/06 04:18:22;;;;;;;4.75;2.92;;;9.90;99.90;;;;;;6154847;23;20033;-76
2022/09/06 04:20:51;;;;;;;3.42;2.55;;;9.90;99.90;;;;;;6104033;23;20362;-76
2022/09/06 04:23:20;;;;;;;3.47;2.85;;;9.90;99.90;;;;;;6127823;23;20025;-77
2022/09/06 04:25:48;;;;;;;3.63;3.33;;;10.00;99.90;;;;;;6153910;23;20040;-77
2022/09/06 04:28:17;;;;;;;5.18;3.30;;;10.00;99.90;;;;;;6154052;23;20025;-76
2022/09/06 04:30:46;;;;;;;2.95;2.65;;;10.00;99.90;;;;;;6126387;23;20419;-75
2022/09/06 04:33:13;;;;;;;3.78;2.67;;;10.10;99.90;;;;;;6153518;23;20037;-76
2022/09/06 04:35:41;;;;;;;5.97;3.35;;;10.10;99.90;;;;;;6153634;23;20021;-76
2022/09/06 04:38:08;;;;;;;2.95;2.60;;;10.20;99.90;;;;;;6152262;23;20037;-76
2022/09/06 04:40:36;;;;;;;4.72;3.15;;;10.20;99.90;;;;;;6153034;23;20025;-72
2022/09/06 04:43:03;;;;;;;5.05;3.63;;;10.20;99.90;;;;;;6127109;23;20354;-71
2022/09/06 04:45:30;;;;;;;4.95;2.90;;;10.20;99.90;;;;;;6152295;23;20361;-71
2022/09/06 04:48:00;;;;;;;6.93;3.00;;;10.30;99.90;;;;;;6152940;23;20034;-71
2022/09/06 04:50:27;;;;;;;3.17;2.88;;;10.40;99.90;;;;;;6152417;23;20028;-71
2022/09/06 04:53:05;;;;;;;3.25;2.95;;;10.40;99.90;;;;;;6153900;23;20025;-75
2022/09/06 04:55:33;;;;;;;3.85;3.45;;;10.40;99.90;;;;;;6127274;23;20032;-76
2022/09/06 04:58:02;;;;;;;4.82;2.78;;;10.40;99.90;;;;;;6153273;23;20104;-75
2022/09/06 05:00:31;;;;;;;4.13;2.80;;;10.40;99.90;;;;;;6126903;23;20036;-77
2022/09/06 05:03:00;;;;;;;3.65;3.30;;;10.30;99.90;;;;;;6153821;23;20028;-75
2022/09/06 05:05:28;;;;;;;4.10;2.67;;;10.20;99.90;;;;;;6152744;23;20021;-72
2022/09/06 05:07:56;;;;;;;4.75;2.95;;;10.20;99.90;;;;;;6127006;23;20022;-70
2022/09/06 05:10:25;;;;;;;8.73;4.00;;;10.20;99.90;;;;;;6150805;23;20390;-71
2022/09/06 05:12:54;;;;;;;3.95;3.10;;;10.20;99.90;;;;;;6152129;23;20458;-71
2022/09/06 05:15:23;;;;;;;7.90;3.20;;;10.20;99.90;;;;;;6153386;23;20051;-71
2022/09/06 05:17:51;;;;;;;6.82;3.38;;;10.20;99.90;;;;;;6153203;23;20022;-72
2022/09/06 05:20:19;;;;;;;13.32;4.55;;;10.30;99.90;;;;;;6150839;23;20025;-72
2022/09/06 05:22:53;;;;;;;12.02;4.30;;;10.30;99.90;;;;;;6150735;23;20031;-72
2022/09/06 05:25:20;;;;;;;5.63;3.17;;;10.40;99.90;;;;;;6101411;23;20029;-72
2022/09/06 05:27:48;;;;;;;4.78;2.90;;;10.50;99.90;;;;;;6153162;23;20064;-76
2022/09/06 05:30:16;;;;;;;4.18;3.05;;;10.60;99.90;;;;;;6152591;23;20375;-76
2022/09/06 05:32:44;;;;;;;5.50;4.20;;;10.70;99.90;;;;;;6151271;23;20029;-77
2022/09/06 05:35:12;;;;;;;6.55;3.15;;;10.70;99.90;;;;;;6151282;23;20021;-76
2022/09/06 05:37:40;;;;;;;5.50;3.50;;;10.70;99.90;;;;;;6150765;23;20025;-75
2022/09/06 05:40:09;;;;;;;4.35;3.15;;;10.80;99.90;;;;;;6148512;23;20068;-76
2022/09/06 05:42:39;;;;;;;8.27;2.40;;;10.90;99.90;;;;;;6123950;23;20025;-76
2022/09/06 05:45:08;;;;;;;5.63;2.75;;;11.00;99.90;;;;;;6149544;23;20723;-78
2022/09/06 05:47:35;;;;;;;4.05;2.60;;;11.00;99.90;;;;;;6153497;23;20025;-76
2022/09/06 05:50:05;;;;;;;2.28;2.03;;;11.00;99.90;;;;;;6126601;23;20028;-76
2022/09/06 05:52:33;;;;;;;4.57;2.97;;;11.00;99.90;;;;;;6153296;23;20017;-77
2022/09/06 05:55:04;;;;;;;3.70;2.83;;;11.00;99.90;;;;;;6153348;23;20049;-76
2022/09/06 05:57:32;;;;;;;2.47;2.25;;;11.10;99.90;;;;;;6153128;23;20021;-77
2022/09/06 05:59:59;;;;;;;2.88;2.42;;;11.10;99.90;;;;;;6125966;23;20025;-77
2022/09/06 06:02:27;;;;;;;2.85;1.92;;;11.10;99.90;;;;;;6126940;23;20028;-77
2022/09/06 06:04:54;;;;;;;3.05;2.83;;;11.10;99.90;;;;;;6152251;23;20056;-78
2022/09/06 06:07:21;;;;;;;4.38;3.13;;;11.20;99.90;;;;;;6152387;23;20021;-78
2022/09/06 06:09:49;;;;;;;5.43;2.67;;;11.30;99.90;;;;;;6152991;23;20031;-78
2022/09/06 06:12:18;;;;;;;3.47;2.72;;;11.40;99.90;;;;;;6153184;23;20029;-78
2022/09/06 06:14:45;;;;;;;5.88;3.20;;;11.50;99.90;;;;;;6102382;23;20053;-78
2022/09/06 06:17:12;;;;;;;3.20;2.30;;;11.60;99.90;;;;;;6152790;23;20043;-72
2022/09/06 06:19:40;;;;;;;5.18;2.53;;;11.60;99.90;;;;;;6125734;23;20029;-71
2022/09/06 06:22:07;;;;;;;4.47;2.63;;;11.70;99.90;;;;;;6126335;23;20073;-71
2022/09/06 06:24:35;;;;;;;3.80;2.60;;;11.70;99.90;;;;;;6150958;23;20021;-71
2022/09/06 06:27:02;;;;;;;7.43;4.90;;;11.80;99.90;;;;;;6152315;23;20419;-70
2022/09/06 06:29:31;;;;;;;4.40;3.15;;;11.80;99.90;;;;;;6153097;23;20045;-70
2022/09/06 06:31:59;;;;;;;3.35;2.17;;;11.80;99.90;;;;;;6124400;23;20033;-69
2022/09/06 06:34:26;;;;;;;2.90;2.40;;;11.80;99.90;;;;;;6152012;23;20021;-69
2022/09/06 06:36:54;;;;;;;2.88;2.53;;;11.80;99.90;;;;;;6125011;23;20112;-71
2022/09/06 06:39:22;;;;;;;3.28;2.60;;;11.90;99.90;;;;;;6151643;23;20029;-70
2022/09/06 06:41:49;;;;;;;5.72;2.55;;;11.90;99.90;;;;;;6151028;23;20029;-71
2022/09/06 06:44:41;;;;;;;12.00;2.03;;;12.00;99.90;;;;;;6149222;23;20100;-71
2022/09/06 06:47:08;;;;;;;2.95;2.15;;;12.10;99.90;;;;;;6125115;23;20358;-71
2022/09/06 06:49:35;;;;;;;5.45;2.50;;;12.20;99.90;;;;;;6125299;23;20358;-71
2022/09/06 06:52:03;;;;;;;3.92;2.95;;;12.30;99.90;;;;;;6150051;23;20105;-71
2022/09/06 06:54:31;;;;;;;6.80;2.92;;;12.40;99.90;;;;;;6151701;23;20021;-71
2022/09/06 06:56:58;;;;;;;3.30;2.40;;;12.50;99.90;;;;;;6152033;23;20030;-70
2022/09/06 06:59:25;;;;;;;5.55;3.75;;;12.60;99.90;;;;;;6151809;23;20030;-71
2022/09/06 07:01:54;;;;;;;7.38;3.70;;;12.80;99.90;;;;;;6148670;23;20463;-70
2022/09/06 07:04:22;;;;;;;13.07;6.65;;;13.00;99.90;;;;;;6150979;23;20045;-71
2022/09/06 07:06:52;;;;;;;3.08;2.40;;;13.10;99.90;;;;;;6151909;23;20026;-70
2022/09/06 07:09:21;;;;;;;3.75;2.38;;;13.30;99.90;;;;;;6151314;23;20030;-71
2022/09/06 07:11:49;;;;;;;5.90;2.15;;;13.50;99.90;;;;;;6151562;23;20021;-70
2022/09/06 07:14:17;;;;;;;2.78;2.03;;;13.80;99.90;;;;;;6154283;23;20021;-71
2022/09/06 07:16:45;;;;;;;3.33;2.10;;;14.20;99.90;;;;;;6151954;23;20025;-72
2022/09/06 07:19:14;;;;;;;1.98;1.75;;;14.70;99.90;;;;;;6154019;23;20029;-71
2022/09/06 07:21:41;;;;;;;5.53;2.53;;;15.20;99.90;;;;;;6153284;23;20064;-72
2022/09/06 07:24:09;;;;;;;4.28;1.92;;;15.70;99.90;;;;;;6152462;23;20512;-72
2022/09/06 07:26:38;;;;;;;2.58;2.38;;;16.20;99.90;;;;;;6151921;23;20031;-71
2022/09/06 07:29:06;;;;;;;3.80;1.95;;;16.60;99.90;;;;;;6152399;23;20040;-71
2022/09/06 07:31:35;;;;;;;2.95;2.25;;;16.80;99.90;;;;;;6152679;23;20028;-71
2022/09/06 07:34:03;;;;;;;4.90;1.73;;;17.00;99.90;;;;;;6152727;23;20026;-70
2022/09/06 07:36:32;;;;;;;2.92;1.70;;;17.40;99.90;;;;;;6126532;23;20384;-72
2022/09/06 07:39:00;;;;;;;3.00;1.95;;;17.70;99.90;;;;;;6152663;23;20088;-72
2022/09/06 07:41:27;;;;;;;3.70;1.70;;;17.80;99.90;;;;;;6125760;23;20026;-72
2022/09/06 07:43:55;;;;;;;1.50;1.27;;;17.70;99.90;;;;;;6126041;23;20021;-71
2022/09/06 07:46:22;;;;;;;1.67;1.25;;;17.50;99.90;;;;;;6152406;23;20026;-71
2022/09/06 07:48:50;;;;;;;1.95;1.50;;;17.30;99.90;;;;;;6125170;23;20022;-71
2022/09/06 07:51:20;;;;;;;2.33;1.58;;;17.20;99.90;;;;;;6151821;23;20103;-71
2022/09/06 07:53:54;;;;;;;3.35;1.63;;;17.20;99.90;;;;;;6153407;23;20299;-71
2022/09/06 07:56:22;;;;;;;1.98;1.70;;;17.30;99.90;;;;;;6152760;23;20085;-71
2022/09/06 07:58:51;;;;;;;4.38;2.00;;;17.30;99.90;;;;;;6152899;23;20032;-71
2022/09/06 08:01:31;;;;;;;2.30;1.60;;;17.10;99.90;;;;;;6151737;23;20490;-71
2022/09/06 08:04:00;;;;;;;4.55;1.80;;;17.30;99.90;;;;;;6153306;23;20116;-71
2022/09/06 08:06:30;;;;;;;2.50;1.65;;;17.50;99.90;;;;;;6153372;23;20021;-71
2022/09/06 08:08:59;;;;;;;2.13;1.88;;;18.10;99.90;;;;;;6125539;23;20017;-72
2022/09/06 08:11:29;;;;;;;2.33;1.40;;;19.10;99.90;;;;;;6148651;23;20030;-70
2022/09/06 08:13:59;;;;;;;3.58;1.90;;;19.90;96.30;;;;;;6151661;23;20264;-70
2022/09/06 08:16:30;;;;;;;6.15;1.90;;;20.60;95.00;;;;;;6151999;23;20245;-76
2022/09/06 08:19:00;;;;;;;2.85;1.55;;;21.40;91.80;;;;;;6153647;23;20477;-76
2022/09/06 08:21:31;;;;;;;5.13;1.48;;;21.90;88.00;;;;;;6126764;23;20021;-71
2022/09/06 08:24:02;;;;;;;2.95;1.40;;;22.00;82.80;;;;;;6126584;23;20025;-71
2022/09/06 08:26:32;;;;;;;3.35;1.70;;;21.80;84.70;;;;;;6125796;23;20121;-71
2022/09/06 08:29:08;;;;;;;1.77;1.30;;;21.80;81.40;;;;;;6153323;23;20025;-73
2022/09/06 08:31:43;;;;;;;;;;;22.40;79.30;;;;;;6153080;23;20033;-71
2022/09/06 08:34:13;;;;;;;2.05;1.30;;;21.90;75.10;;;;;;6152693;23;20342;-71
2022/09/06 08:36:40;;;;;;;4.70;1.88;;;21.00;72.10;;;;;;6151732;23;20068;-72
2022/09/06 08:39:11;;;;;;;2.85;1.00;;;20.30;72.80;;;;;;6151589;23;20361;-73
2022/09/06 08:41:50;;;;;;;1.80;0.93;;;19.60;73.80;;;;;;6151593;23;20137;-71
2022/09/06 08:44:20;;;;;;;2.55;1.00;;;;;;;;;;6151140;23;20052;-72
2022/09/06 08:46:55;;;;;;;6.30;1.42;;;18.20;77.90;;;;;;6125953;23;20072;-77
2022/09/06 08:49:25;;;;;;;3.97;1.60;;;17.70;80.10;;;;;;6153328;23;20076;-76
2022/09/06 08:52:21;;;;;;;3.17;2.58;;;17.50;82.30;;;;;;6125586;23;20022;-76
2022/09/06 08:55:01;;;;;;;2.22;1.70;;;17.60;83.30;;;;;;6150678;23;20025;-76
2022/09/06 08:57:44;;;;;;;4.15;2.25;;;17.80;83.40;;;;;;6151756;23;20029;-76
2022/09/06 09:00:13;;;;;;;4.75;1.50;;;17.70;84.70;;;;;;6150572;23;20029;-76
2022/09/06 09:02:44;;;;;;;3.80;1.00;;;17.30;83.50;;;;;;6124934;23;20032;-76
2022/09/06 09:05:24;;;;;;;3.10;1.00;;;16.90;85.00;;;;;;6151161;23;20534;-77
2022/09/06 09:08:05;;;;;;;1.10;0.80;;;16.50;87.00;;;;;;6153036;23;20080;-78
2022/09/06 09:10:43;;;;;;;1.67;0.70;;;16.20;87.40;;;;;;6151644;23;20025;-74
2022/09/06 09:13:31;;;;;;;1.55;0.90;;;16.00;88.20;;;;;;6152456;23;20025;-76
2022/09/06 09:15:59;;;;;;;1.08;0.88;;;15.90;89.30;;;;;;6153384;23;20056;-76
2022/09/06 09:18:31;;;;;;;1.23;1.13;;;15.90;88.60;;;;;;6153088;23;20026;-76
2022/09/06 09:20:59;;;;;;;1.35;1.25;;;15.80;90.20;;;;;;6126026;23;20025;-76
2022/09/06 09:23:29;;;;;;;1.15;1.08;;;15.90;91.90;;;;;;6125839;23;20026;-76
2022/09/06 09:26:02;;;;;;;0.80;0.80;;;15.80;91.20;;;;;;6152055;23;20026;-76
2022/09/06 09:28:30;;;;;;;2.75;0.77;;;15.80;91.40;;;;;;6152819;23;20052;-76
2022/09/06 09:30:58;;;;;;;7.13;1.20;;;15.70;91.80;;;;;;6151285;23;20025;-76
2022/09/06 09:33:31;;;;;;;3.83;1.15;;;15.60;92.20;;;;;;6152793;23;20025;-76
2022/09/06 09:36:01;;;;;;;1.40;1.20;;;15.40;92.70;;;;;;6150537;23;20367;-77
2022/09/06 09:38:32;;;;;;;2.30;0.90;;;15.30;93.90;;;;;;6150943;23;20308;-75
2022/09/06 09:41:05;;;;;;;1.75;0.55;;;15.40;93.30;;;;;;6125768;23;20363;-75
2022/09/06 09:43:36;;;;;;;4.13;0.93;;;15.30;92.00;;;;;;6151458;23;20045;-77
2022/09/06 09:46:17;;;;;;;1.33;0.75;;;15.20;92.10;;;;;;6151798;23;20037;-75
2022/09/06 09:49:01;;;;;;;3.00;1.27;;;15.10;91.50;;;;;;6126182;23;20025;-75
2022/09/06 09:51:30;;;;;;;0.80;0.80;;;15.20;91.30;;;;;;6151506;23;20108;-75
2022/09/06 09:53:59;;;;;;;1.05;0.65;;;15.20;90.90;;;;;;6152200;23;20108;-75
2022/09/06 09:56:42;;;;;;;0.70;0.70;;;15.10;91.60;;;;;;6151493;23;20061;-75
2022/09/06 09:59:24;;;;;;;1.67;0.90;;;15.00;92.70;;;;;;6149758;23;20366;-74
2022/09/06 10:01:55;;;;;;;1.63;1.08;;;14.90;93.60;;;;;;6150983;23;20382;-76
2022/09/06 10:04:32;;;;;;;1.70;1.23;;;15.00;94.70;;;;;;6125361;23;20047;-75
2022/09/06 10:07:12;;;;;;;1.38;0.90;;;15.00;95.40;;;;;;6151381;23;20474;-76
2022/09/06 10:09:47;;;;;;;1.05;0.80;;;15.00;95.60;;;;;;6152228;23;20021;-76
2022/09/06 10:12:19;;;;;;;1.23;0.95;;;14.90;96.40;;;;;;6151825;23;20022;-70
2022/09/06 10:14:49;;;;;;;0.98;0.88;;;14.80;97.20;;;;;;6152444;23;20370;-73
2022/09/06 10:17:28;;;;;;;1.85;1.38;;;14.80;97.40;;;;;;6126241;23;20076;-70
2022/09/06 10:19:56;;;;;;;1.80;0.77;;;14.70;98.20;;;;;;6151700;23;20084;-71
2022/09/06 10:22:29;;;;;;;2.33;0.68;;;14.80;98.00;;;;;;6151728;23;20026;-76
2022/09/06 10:25:39;;;;;;;1.25;0.93;;;14.90;98.10;;;;;;6125599;23;20040;-76
2022/09/06 10:28:33;;;;;;;1.45;0.70;;;15.00;98.00;;;;;;6125212;23;20339;-76
2022/09/06 10:31:37;;;;;;;1.65;0.70;;;15.10;97.10;;;;;;6125203;23;20024;-75
2022/09/06 10:34:51;;;;;;;0.93;0.75;;;15.40;97.50;;;;;;6151699;23;20025;-75
2022/09/06 10:37:37;;;;;;;1.60;0.80;;;16.20;96.40;;;;;;6078308;23;20044;-78
2022/09/06 10:40:09;;;;;;;1.80;0.95;;;16.50;95.00;;;;;;6151256;23;20033;-74
2022/09/06 10:42:43;;;;;;;2.72;0.70;;;16.40;95.20;;;;;;6151720;23;20386;-76
2022/09/06 10:45:33;;;;;;;3.47;0.90;;;16.60;95.20;;;;;;6150386;23;20060;-77
2022/09/06 10:48:07;;;;;;;1.17;0.80;;;16.80;95.60;;;;;;6152712;23;20021;-76
2022/09/06 10:50:44;;;;;;;4.80;1.35;;;17.00;95.60;;;;;;6153898;23;20455;-75
2022/09/06 10:53:36;;;;;;;2.05;0.98;;;17.10;96.00;;;;;;6151834;23;20030;-75
2022/09/06 10:56:09;;;;;;;2.10;1.20;;;17.20;96.20;;;;;;6125760;23;20029;-76
2022/09/06 10:58:47;;;;;;;2.67;1.02;;;17.30;95.70;;;;;;6154681;23;20036;-75
2022/09/06 11:01:32;;;;;;;1.08;0.98;;;17.20;95.60;;;;;;6154805;23;20037;-76
2022/09/06 11:04:01;;;;;;;2.25;1.00;;;16.90;95.80;;;;;;6128707;23;20034;-77
2022/09/06 11:06:36;;;;;;;2.10;0.85;;;16.70;96.50;;;;;;6154352;23;20036;-76
2022/09/06 11:09:15;;;;;;;2.42;0.77;;;16.60;97.00;;;;;;6154314;23;20033;-77
2022/09/06 11:11:48;;;;;;;3.25;0.90;;;16.80;97.20;;;;;;6153330;23;20021;-76
2022/09/06 11:14:17;;;;;;;6.63;2.67;;;16.80;95.80;;;;;;6155693;23;20521;-76
2022/09/06 11:16:52;;;;;;;1.38;1.05;;;16.70;96.70;;;;;;6154804;23;20025;-76
2022/09/06 11:19:24;;;;;;;1.23;1.00;;;16.60;97.10;;;;;;6128159;23;20025;-76
2022/09/06 11:22:36;;;;;;;1.58;0.85;;;16.50;97.00;;;;;;6154922;23;20045;-76
2022/09/06 11:25:46;;;;;;;1.88;1.20;;;16.40;97.70;;;;;;6153641;23;20121;-76
2022/09/06 11:28:20;;;;;;;2.25;0.93;;;16.50;98.00;;;;;;6154426;23;20025;-72
2022/09/06 11:30:59;;;;;;;2.70;0.65;;;16.60;98.30;;;;;;6152507;23;20079;-71
2022/09/06 11:33:34;;;;;;;2.05;1.42;;;16.70;98.80;;;;;;6153760;23;20095;-71
2022/09/06 11:36:33;;;;;;;1.83;0.95;;;16.90;98.80;;;;;;6153470;23;20108;-70
2022/09/06 11:39:04;;;;;;;8.45;3.00;;;16.90;99.20;;;;;;6154138;23;20027;-70
2022/09/06 11:41:34;;;;;;;4.38;1.17;;;17.00;99.90;;;;;;6127291;23;20465;-71
2022/09/06 11:44:03;;;;;;;1.65;1.15;;;17.20;99.50;;;;;;6127699;23;20036;-71
2022/09/06 11:47:00;;;;;;;3.53;1.10;;;17.20;99.90;;;;;;6127107;23;20028;-74
2022/09/06 11:49:40;;;;;;;1.83;1.20;;;17.50;99.80;;;;;;6153245;23;20031;-73
2022/09/06 11:52:58;;;;;;;4.65;1.50;;;17.90;99.50;;;;;;6153099;23;20068;-71
2022/09/06 11:55:35;;;;;;;3.30;1.50;;;18.00;99.10;;;;;;6118561;23;20025;-71
2022/09/06 11:58:06;;;;;;;1.48;1.20;;;17.80;99.10;;;;;;6153206;23;20045;-72
2022/09/06 12:00:34;;;;;;;2.17;0.90;;;17.60;99.80;;;;;;6152402;23;20025;-72
2022/09/06 12:03:01;;;;;;;3.72;1.30;;;17.60;99.60;;;;;;6153362;23;20056;-73
2022/09/06 12:05:32;;;;;;;1.80;1.70;;;17.50;99.90;;;;;;6152857;23;20041;-73
2022/09/06 12:08:34;;;;;;;5.28;1.95;;;17.50;99.90;;;;;;6153511;23;20025;-72
2022/09/06 12:11:22;;;;;;;3.10;1.17;;;17.50;99.90;;;;;;6152853;23;20021;-74
2022/09/06 12:13:58;;;;;;;1.77;1.35;;;17.50;99.90;;;;;;6151234;23;20108;-72
2022/09/06 12:17:06;;;;;;;1.92;1.20;;;17.40;99.90;;;;;;6149820;23;20025;-73
2022/09/06 12:19:45;;;;;;;3.45;1.10;;;17.10;99.90;;;;;;6152406;23;20370;-75
2022/09/06 12:23:03;;;;;;;2.90;1.20;;;16.90;99.90;;;;;;6152021;23;20454;-74
2022/09/06 12:25:53;;;;;;;3.53;1.00;;;16.80;99.90;;;;;;6150188;23;20466;-73
2022/09/06 12:28:35;;;;;;;1.65;1.17;;;16.60;99.90;;;;;;6151814;23;20385;-71
2022/09/06 12:31:26;;;;;;;7.63;1.75;;;16.50;99.90;;;;;;6127513;23;20025;-78
2022/09/06 12:33:54;;;;;;;5.85;1.85;;;16.20;99.90;;;;;;6154017;23;20026;-78
2022/09/06 12:36:28;;;;;;;3.88;1.35;;;15.90;99.90;;;;;;6153437;23;20033;-79
2022/09/06 12:38:59;;;;;;;3.30;0.93;;;15.70;99.90;;;;;;6127038;23;20386;-81
2022/09/06 12:41:29;;;;;;;3.22;1.38;;;15.60;99.90;;;;;;6151526;23;20025;-80
2022/09/06 12:43:59;;;;;;;4.40;0.80;;;15.60;99.90;;;;;;6152483;23;20459;-78
2022/09/06 12:46:31;;;;;;;3.30;1.10;;;15.80;99.90;;;;;;6151618;23;20072;-78
2022/09/06 12:49:05;;;;;;;5.50;0.95;;;16.00;99.90;;;;;;6152659;23;20048;-81
2022/09/06 12:51:34;;;;;;;1.70;0.82;;;16.30;99.90;;;;;;6150793;23;20427;-79
2022/09/06 12:54:19;;;;;;;5.72;1.05;;;16.60;99.90;;;;;;6152522;23;20466;-79
2022/09/06 12:56:46;;;;;;;3.13;1.00;;;16.90;99.90;;;;;;6125591;23;20025;-77
2022/09/06 12:59:18;;;;;;;4.45;0.73;;;17.20;99.90;;;;;;6151435;23;20063;-78
2022/09/06 13:01:56;;;;;;;3.92;0.82;;;17.80;99.90;;;;;;6149781;23;20482;-79
2022/09/06 13:04:32;;;;;;;2.38;1.10;;;17.90;99.90;;;;;;6151935;23;20025;-80
2022/09/06 13:07:03;;;;;;;4.03;0.90;;;17.60;99.90;;;;;;6125039;23;20048;-79
2022/09/06 13:09:33;;;;;;;3.40;1.00;;;17.10;99.90;;;;;;6151431;23;20025;-79
2022/09/06 13:12:07;;;;;;;1.42;1.13;;;16.90;99.90;;;;;;6150013;23;20040;-80
2022/09/06 13:14:35;;;;;;;3.42;0.75;;;16.90;99.90;;;;;;6125744;23;20034;-80
2022/09/06 13:17:03;;;;;;;2.97;1.70;;;17.00;99.90;;;;;;6151827;23;20043;-79
2022/09/06 13:19:34;;;;;;;4.57;1.10;;;17.40;99.90;;;;;;6150479;23;20336;-74